createdAt,value
2023-09-26T00:02:04.493Z,95.70
2023-09-26T00:04:33.276Z,95.70
2023-09-26T00:07:03.526Z,95.70
2023-09-26T00:09:31.561Z,95.90
2023-09-26T00:11:58.806Z,95.90
2023-09-26T00:14:25.928Z,96.00
2023-09-26T00:16:53.123Z,96.10
2023-09-26T00:19:20.259Z,96.10
2023-09-26T00:21:48.579Z,96.10
2023-09-26T00:24:16.291Z,96.20
2023-09-26T00:26:44.166Z,96.20
2023-09-26T00:29:11.481Z,96.30
2023-09-26T00:31:39.149Z,96.30
2023-09-26T00:34:06.397Z,96.40
2023-09-26T00:36:33.521Z,96.50
2023-09-26T00:39:01.163Z,96.50
2023-09-26T00:41:28.354Z,96.60
2023-09-26T00:43:55.465Z,96.60
2023-09-26T00:46:22.820Z,96.70
2023-09-26T00:48:50.130Z,96.70
2023-09-26T00:51:17.373Z,96.80
2023-09-26T00:53:44.704Z,96.80
2023-09-26T00:56:12.209Z,96.80
2023-09-26T00:58:41.448Z,96.80
2023-09-26T01:01:09.405Z,96.80
2023-09-26T01:03:37.067Z,96.90
2023-09-26T01:06:04.616Z,96.90
2023-09-26T01:08:32.296Z,97.00
2023-09-26T01:11:02.509Z,97.00
2023-09-26T01:13:29.692Z,97.10
2023-09-26T01:15:58.073Z,97.20
2023-09-26T01:18:25.568Z,97.10
2023-09-26T01:20:53.164Z,97.20
2023-09-26T01:23:24.338Z,97.20
2023-09-26T01:25:51.389Z,97.30
2023-09-26T01:28:18.756Z,97.30
2023-09-26T01:30:47.557Z,97.40
2023-09-26T01:33:17.778Z,97.40
2023-09-26T01:35:45.214Z,97.50
2023-09-26T01:38:12.956Z,97.60
2023-09-26T01:40:42.234Z,97.60
2023-09-26T01:43:09.863Z,97.60
2023-09-26T01:45:37.035Z,97.70
2023-09-26T01:48:06.951Z,97.60
2023-09-26T01:50:36.370Z,97.70
2023-09-26T01:53:05.194Z,97.70
2023-09-26T01:55:32.411Z,97.70
2023-09-26T01:57:59.492Z,97.80
2023-09-26T02:00:26.639Z,97.80
2023-09-26T02:02:54.795Z,97.80
2023-09-26T02:05:22.856Z,97.80
2023-09-26T02:07:50.581Z,97.80
2023-09-26T02:10:19.308Z,97.80
2023-09-26T02:12:50.227Z,97.80
2023-09-26T02:15:17.827Z,97.90
2023-09-26T02:17:45.471Z,97.80
2023-09-26T02:20:16.730Z,97.90
2023-09-26T02:22:49.322Z,97.90
2023-09-26T02:25:20.162Z,98.00
2023-09-26T02:27:49.444Z,98.00
2023-09-26T02:30:20.422Z,98.10
2023-09-26T02:32:47.896Z,98.10
2023-09-26T02:35:17.521Z,98.10
2023-09-26T02:37:45.144Z,98.20
2023-09-26T02:40:13.832Z,98.20
2023-09-26T02:42:45.375Z,98.60
2023-09-26T02:45:15.027Z,98.30
2023-09-26T02:47:44.056Z,98.30
2023-09-26T02:50:13.240Z,98.30
2023-09-26T02:52:44.040Z,98.40
2023-09-26T02:55:11.971Z,98.50
2023-09-26T02:57:39.371Z,98.50
2023-09-26T03:00:17.215Z,98.60
2023-09-26T03:02:47.183Z,98.70
2023-09-26T03:05:16.243Z,98.70
2023-09-26T03:07:44.167Z,98.70
2023-09-26T03:10:12.100Z,98.70
2023-09-26T03:12:44.591Z,98.80
2023-09-26T03:15:12.559Z,98.80
2023-09-26T03:17:40.740Z,98.80
2023-09-26T03:20:12.626Z,98.90
2023-09-26T03:22:39.743Z,98.90
2023-09-26T03:25:07.382Z,98.90
2023-09-26T03:27:34.638Z,99.00
2023-09-26T03:30:01.916Z,99.00
2023-09-26T03:32:29.698Z,99.10
2023-09-26T03:34:57.428Z,99.10
2023-09-26T03:37:25.906Z,99.20
2023-09-26T03:39:52.951Z,99.20
2023-09-26T03:42:20.237Z,99.20
2023-09-26T03:44:48.397Z,99.20
2023-09-26T03:47:15.537Z,99.30
2023-09-26T03:49:42.845Z,99.20
2023-09-26T03:52:10.539Z,99.30
2023-09-26T03:54:38.298Z,99.30
2023-09-26T03:57:05.913Z,99.40
2023-09-26T03:59:34.442Z,99.50
2023-09-26T04:02:01.938Z,99.50
2023-09-26T04:04:30.742Z,99.50
2023-09-26T04:06:58.411Z,99.80
2023-09-26T04:09:25.519Z,99.60
2023-09-26T04:11:52.872Z,99.50
2023-09-26T04:14:23.065Z,99.50
2023-09-26T04:16:50.463Z,99.50
2023-09-26T04:19:17.694Z,99.50
2023-09-26T04:21:45.246Z,99.50
2023-09-26T04:24:12.498Z,99.50
2023-09-26T04:26:39.632Z,99.50
2023-09-26T04:29:06.995Z,99.60
2023-09-26T04:31:34.115Z,99.60
2023-09-26T04:34:01.325Z,99.60
2023-09-26T04:36:30.918Z,99.70
2023-09-26T04:38:58.191Z,99.70
2023-09-26T04:41:25.645Z,99.70
2023-09-26T04:43:53.037Z,99.70
2023-09-26T04:46:20.357Z,99.80
2023-09-26T04:48:47.812Z,99.90
2023-09-26T04:51:15.786Z,99.90
2023-09-26T04:53:42.993Z,99.90
2023-09-26T04:56:10.392Z,99.90
2023-09-26T04:58:37.679Z,99.90
2023-09-26T05:01:16.657Z,99.90
2023-09-26T05:03:44.784Z,99.90
2023-09-26T05:06:13.070Z,99.90
2023-09-26T05:08:41.272Z,99.90
2023-09-26T05:11:13.599Z,99.90
2023-09-26T05:13:40.634Z,99.90
2023-09-26T05:16:12.022Z,99.90
2023-09-26T05:18:39.122Z,99.90
2023-09-26T05:21:07.604Z,99.90
2023-09-26T05:23:35.078Z,99.90
2023-09-26T05:26:11.093Z,99.90
2023-09-26T05:28:38.571Z,99.90
2023-09-26T05:31:06.767Z,99.90
2023-09-26T05:33:33.974Z,99.90
2023-09-26T05:36:01.083Z,99.90
2023-09-26T05:38:28.246Z,99.90
2023-09-26T05:40:55.608Z,99.90
2023-09-26T05:43:23.138Z,99.90
2023-09-26T05:45:52.413Z,99.90
2023-09-26T05:48:22.685Z,99.90
2023-09-26T05:50:49.884Z,99.90
2023-09-26T05:53:18.810Z,99.90
2023-09-26T05:55:45.688Z,99.90
2023-09-26T05:58:12.861Z,99.90
2023-09-26T06:00:40.290Z,99.90
2023-09-26T06:03:07.255Z,99.90
2023-09-26T06:05:37.688Z,99.90
2023-09-26T06:08:05.344Z,99.90
2023-09-26T06:10:32.360Z,99.90
2023-09-26T06:12:59.619Z,99.90
2023-09-26T06:15:26.741Z,99.90
2023-09-26T06:18:01.290Z,99.90
2023-09-26T06:20:29.356Z,99.90
2023-09-26T06:22:57.066Z,99.90
2023-09-26T06:25:24.226Z,99.90
2023-09-26T06:27:53.293Z,99.90
2023-09-26T06:30:20.577Z,99.90
2023-09-26T06:32:47.793Z,99.90
2023-09-26T06:35:15.955Z,99.90
2023-09-26T06:37:42.982Z,99.90
2023-09-26T06:40:11.810Z,99.90
2023-09-26T06:42:40.614Z,99.90
2023-09-26T06:45:09.616Z,99.90
2023-09-26T06:47:36.705Z,99.90
2023-09-26T06:50:04.226Z,99.90
2023-09-26T06:52:32.236Z,99.90
2023-09-26T06:54:59.387Z,99.90
2023-09-26T06:57:27.836Z,99.90
2023-09-26T06:59:57.036Z,99.90
2023-09-26T07:02:26.258Z,99.80
2023-09-26T07:04:56.321Z,99.60
2023-09-26T07:07:24.791Z,99.30
2023-09-26T07:09:51.864Z,99.30
2023-09-26T07:12:19.195Z,99.20
2023-09-26T07:14:46.337Z,98.90
2023-09-26T07:17:13.462Z,98.70
2023-09-26T07:19:40.488Z,98.30
2023-09-26T07:22:07.490Z,98.00
2023-09-26T07:24:48.788Z,97.50
2023-09-26T07:27:21.679Z,97.20
2023-09-26T07:29:48.920Z,96.90
2023-09-26T07:32:16.869Z,96.70
2023-09-26T07:34:44.413Z,96.40
2023-09-26T07:37:14.799Z,96.30
2023-09-26T07:39:48.160Z,95.70
2023-09-26T07:42:15.151Z,95.50
2023-09-26T07:44:42.151Z,95.00
2023-09-26T07:47:09.469Z,94.70
2023-09-26T07:49:36.503Z,94.10
2023-09-26T07:52:03.434Z,93.50
2023-09-26T07:54:32.126Z,93.10
2023-09-26T07:56:59.169Z,92.90
2023-09-26T07:59:26.064Z,92.70
2023-09-26T08:01:53.075Z,92.20
2023-09-26T08:04:20.577Z,91.60
2023-09-26T08:06:48.231Z,91.00
2023-09-26T08:09:16.364Z,90.00
2023-09-26T08:11:43.532Z,88.70
2023-09-26T08:14:10.542Z,87.20
2023-09-26T08:16:37.756Z,85.70
2023-09-26T08:19:04.832Z,83.80
2023-09-26T08:21:31.887Z,81.90
2023-09-26T08:23:58.983Z,80.70
2023-09-26T08:26:26.095Z,79.50
2023-09-26T08:28:53.157Z,78.50
2023-09-26T08:31:21.429Z,77.50
2023-09-26T08:33:51.003Z,76.50
2023-09-26T08:36:20.956Z,74.80
2023-09-26T08:38:51.129Z,72.40
2023-09-26T08:41:20.200Z,69.80
2023-09-26T08:43:48.268Z,67.90
2023-09-26T08:46:15.584Z,65.90
2023-09-26T08:48:44.977Z,62.50
2023-09-26T08:51:12.323Z,60.50
2023-09-26T08:53:39.668Z,58.30
2023-09-26T08:56:06.676Z,56.30
2023-09-26T08:58:34.698Z,54.60
2023-09-26T09:01:02.441Z,53.60
2023-09-26T09:03:29.812Z,52.20
2023-09-26T09:05:57.166Z,51.50
2023-09-26T09:08:24.501Z,50.20
2023-09-26T09:10:56.478Z,50.40
2023-09-26T09:13:44.528Z,49.00
2023-09-26T09:16:18.051Z,48.00
2023-09-26T09:18:48.736Z,47.70
2023-09-26T09:21:31.010Z,48.00
2023-09-26T09:24:03.571Z,46.90
2023-09-26T09:26:33.862Z,46.90
2023-09-26T09:29:24.366Z,46.40
2023-09-26T09:31:53.278Z,45.80
2023-09-26T09:34:23.225Z,45.50
2023-09-26T09:36:51.450Z,44.90
2023-09-26T09:39:23.728Z,44.50
2023-09-26T09:41:53.753Z,43.50
2023-09-26T09:44:20.746Z,43.20
2023-09-26T09:46:57.220Z,41.30
2023-09-26T09:49:32.759Z,40.20
2023-09-26T09:52:08.012Z,39.90
2023-09-26T09:54:42.671Z,38.20
2023-09-26T09:57:13.307Z,38.40
2023-09-26T09:59:40.874Z,38.60
2023-09-26T10:02:11.312Z,38.00
2023-09-26T10:04:39.299Z,37.10
2023-09-26T10:07:06.371Z,36.40
2023-09-26T10:09:35.466Z,35.20
2023-09-26T10:12:03.082Z,34.40
2023-09-26T10:14:33.692Z,34.10
2023-09-26T10:17:00.955Z,32.60
2023-09-26T10:19:47.767Z,31.90
2023-09-26T10:22:21.745Z,31.00
2023-09-26T10:24:53.787Z,30.20
2023-09-26T10:27:47.342Z,29.80
2023-09-26T10:30:21.384Z,29.60
2023-09-26T10:32:49.010Z,30.10
2023-09-26T10:38:24.393Z,29.40
2023-09-26T10:40:52.247Z,28.30
2023-09-26T10:43:43.184Z,28.80
2023-09-26T10:46:07.148Z,28.40
2023-09-26T10:48:35.796Z,27.90
2023-09-26T10:51:02.996Z,27.70
2023-09-26T10:53:30.011Z,27.40
2023-09-26T10:55:57.002Z,27.20
2023-09-26T10:58:24.215Z,27.10
2023-09-26T11:00:53.173Z,27.10
2023-09-26T11:03:20.891Z,26.80
2023-09-26T11:05:48.812Z,26.80
2023-09-26T11:11:03.354Z,27.10
2023-09-26T11:13:31.592Z,27.10
2023-09-26T11:15:58.886Z,26.80
2023-09-26T11:18:26.055Z,26.80
2023-09-26T11:21:02.384Z,27.00
2023-09-26T11:23:41.320Z,26.80
2023-09-26T11:26:09.758Z,26.40
2023-09-26T11:28:37.510Z,26.20
2023-09-26T11:31:05.412Z,25.80
2023-09-26T11:33:33.593Z,26.00
2023-09-26T11:36:02.449Z,26.00
2023-09-26T11:38:31.152Z,25.80
2023-09-26T11:40:58.500Z,25.90
2023-09-26T11:43:25.900Z,25.60
2023-09-26T11:46:04.430Z,25.50
2023-09-26T11:48:32.176Z,25.20
2023-09-26T11:51:00.786Z,25.50
2023-09-26T11:53:31.231Z,25.50
2023-09-26T11:55:59.484Z,25.50
2023-09-26T11:58:27.779Z,25.10
2023-09-26T12:00:54.887Z,25.20
2023-09-26T12:03:22.098Z,25.20
2023-09-26T12:05:50.189Z,25.00
2023-09-26T12:08:17.438Z,24.80
2023-09-26T12:10:44.565Z,24.80
2023-09-26T12:13:12.283Z,24.60
2023-09-26T12:15:40.018Z,24.40
2023-09-26T12:18:07.342Z,24.20
2023-09-26T12:20:35.280Z,24.20
2023-09-26T12:23:03.503Z,24.20
2023-09-26T12:25:31.301Z,24.30
2023-09-26T12:28:01.080Z,24.40
2023-09-26T12:30:28.735Z,24.40
2023-09-26T12:32:56.130Z,24.70
2023-09-26T12:35:23.391Z,24.50
2023-09-26T12:37:50.638Z,24.30
2023-09-26T12:40:17.840Z,24.30
2023-09-26T12:42:44.881Z,24.50
2023-09-26T12:45:12.481Z,24.40
2023-09-26T12:47:39.646Z,24.20
2023-09-26T12:50:11.078Z,24.20
2023-09-26T12:52:41.293Z,24.30
2023-09-26T12:55:10.360Z,24.50
2023-09-26T12:57:39.322Z,24.80
2023-09-26T13:00:11.522Z,24.90
2023-09-26T13:02:40.875Z,25.10
2023-09-26T13:05:09.329Z,25.40
2023-09-26T13:07:36.496Z,25.30
2023-09-26T13:10:04.071Z,25.40
2023-09-26T13:12:31.156Z,25.50
2023-09-26T13:14:58.348Z,25.50
2023-09-26T13:17:25.394Z,25.40
2023-09-26T13:19:52.886Z,25.30
2023-09-26T13:22:19.879Z,25.40
2023-09-26T13:24:46.925Z,25.40
2023-09-26T13:27:14.454Z,25.80
2023-09-26T13:29:41.499Z,25.80
2023-09-26T13:32:09.229Z,25.80
2023-09-26T13:34:40.165Z,25.70
2023-09-26T13:37:07.997Z,25.70
2023-09-26T13:39:35.480Z,25.80
2023-09-26T13:42:02.547Z,26.30
2023-09-26T13:44:29.471Z,26.60
2023-09-26T13:46:57.458Z,26.90
2023-09-26T13:49:25.058Z,27.10
2023-09-26T13:51:54.370Z,27.70
2023-09-26T13:54:21.378Z,27.70
2023-09-26T13:56:48.497Z,28.00
2023-09-26T13:59:15.587Z,28.80
2023-09-26T14:01:42.697Z,28.80
2023-09-26T14:04:10.072Z,29.10
2023-09-26T14:06:37.336Z,29.70
2023-09-26T14:09:05.673Z,30.00
2023-09-26T14:11:33.198Z,30.30
2023-09-26T14:14:00.331Z,30.60
2023-09-26T14:16:30.321Z,30.80
2023-09-26T14:19:00.367Z,30.90
2023-09-26T14:21:27.474Z,31.10
2023-09-26T14:23:55.609Z,31.40
2023-09-26T14:26:26.351Z,31.60
2023-09-26T14:28:55.624Z,31.70
2023-09-26T14:31:22.929Z,31.70
2023-09-26T14:33:50.017Z,31.50
2023-09-26T14:36:17.279Z,31.40
2023-09-26T14:38:44.268Z,31.40
2023-09-26T14:41:11.412Z,31.50
2023-09-26T14:43:40.120Z,31.60
2023-09-26T14:46:07.186Z,31.50
2023-09-26T14:48:34.148Z,31.60
2023-09-26T14:51:01.391Z,31.70
2023-09-26T14:53:28.417Z,32.00
2023-09-26T14:55:55.458Z,32.30
2023-09-26T14:58:22.508Z,32.50
2023-09-26T15:00:49.770Z,32.60
2023-09-26T15:03:18.177Z,32.90
2023-09-26T15:05:45.627Z,33.20
2023-09-26T15:08:12.876Z,33.40
2023-09-26T15:10:41.146Z,33.60
2023-09-26T15:13:09.646Z,33.90
2023-09-26T15:15:36.769Z,34.10
2023-09-26T15:18:04.343Z,34.30
2023-09-26T15:20:31.368Z,34.40
2023-09-26T15:22:59.630Z,34.50
2023-09-26T15:25:26.955Z,34.80
2023-09-26T15:27:54.125Z,34.80
2023-09-26T15:30:21.906Z,35.10
2023-09-26T15:32:49.450Z,35.20
2023-09-26T15:35:16.683Z,35.50
2023-09-26T15:37:43.885Z,35.60
2023-09-26T15:40:14.364Z,35.70
2023-09-26T15:42:41.764Z,35.80
2023-09-26T15:45:09.532Z,35.90
2023-09-26T15:47:37.020Z,36.00
2023-09-26T15:50:04.610Z,35.90
2023-09-26T15:52:31.634Z,36.10
2023-09-26T15:54:59.125Z,36.30
2023-09-26T15:57:26.086Z,36.60
2023-09-26T15:59:53.207Z,36.60
2023-09-26T16:02:20.270Z,36.70
2023-09-26T16:04:47.520Z,36.80
2023-09-26T16:07:14.522Z,36.90
2023-09-26T16:09:42.150Z,37.10
2023-09-26T16:12:09.410Z,37.20
2023-09-26T16:14:36.706Z,37.50
2023-09-26T16:17:06.122Z,37.80
2023-09-26T16:19:33.740Z,38.40
2023-09-26T16:22:01.421Z,38.70
2023-09-26T16:24:28.665Z,39.20
2023-09-26T16:26:56.000Z,39.50
2023-09-26T16:29:24.011Z,40.10
2023-09-26T16:31:51.460Z,40.50
2023-09-26T16:34:19.342Z,41.00
2023-09-26T16:36:47.172Z,41.50
2023-09-26T16:39:14.271Z,42.00
2023-09-26T16:41:41.708Z,42.60
2023-09-26T16:44:09.030Z,43.10
2023-09-26T16:46:36.342Z,43.60
2023-09-26T16:49:03.687Z,44.20
2023-09-26T16:51:31.266Z,44.80
2023-09-26T16:53:59.578Z,45.30
2023-09-26T16:56:27.196Z,45.60
2023-09-26T16:58:55.301Z,46.10
2023-09-26T17:01:24.722Z,46.80
2023-09-26T17:03:52.038Z,47.40
2023-09-26T17:06:19.277Z,47.90
2023-09-26T17:08:48.332Z,48.20
2023-09-26T17:11:20.187Z,48.60
2023-09-26T17:13:47.224Z,49.30
2023-09-26T17:16:14.472Z,49.60
2023-09-26T17:18:41.647Z,50.20
2023-09-26T17:21:10.985Z,50.50
2023-09-26T17:23:38.267Z,51.10
2023-09-26T17:26:05.798Z,51.70
2023-09-26T17:28:34.041Z,52.00
2023-09-26T17:31:01.296Z,52.40
2023-09-26T17:33:28.584Z,52.80
2023-09-26T17:35:55.892Z,53.20
2023-09-26T17:38:23.520Z,53.60
2023-09-26T17:40:56.908Z,54.10
2023-09-26T17:43:24.235Z,54.40
2023-09-26T17:45:51.371Z,54.70
2023-09-26T17:48:18.891Z,55.10
2023-09-26T17:50:46.113Z,55.50
2023-09-26T17:53:13.321Z,55.90
2023-09-26T17:55:40.547Z,57.00
2023-09-26T17:58:08.258Z,56.70
2023-09-26T18:00:35.357Z,57.10
2023-09-26T18:03:02.563Z,58.10
2023-09-26T18:05:29.622Z,58.00
2023-09-26T18:07:56.860Z,58.20
2023-09-26T18:10:24.782Z,58.70
2023-09-26T18:12:52.111Z,59.10
2023-09-26T18:15:19.734Z,59.40
2023-09-26T18:17:47.022Z,59.90
2023-09-26T18:20:14.466Z,60.20
2023-09-26T18:22:42.204Z,60.80
2023-09-26T18:25:10.248Z,61.40
2023-09-26T18:27:37.422Z,61.80
2023-09-26T18:30:05.097Z,62.50
2023-09-26T18:32:32.423Z,63.10
2023-09-26T18:34:59.792Z,63.50
2023-09-26T18:37:27.360Z,64.10
2023-09-26T18:39:54.538Z,64.70
2023-09-26T18:42:22.145Z,65.20
2023-09-26T18:44:49.346Z,65.90
2023-09-26T18:47:16.606Z,66.40
2023-09-26T18:49:44.026Z,66.90
2023-09-26T18:52:11.136Z,67.40
2023-09-26T18:54:38.459Z,68.00
2023-09-26T18:57:05.527Z,68.40
2023-09-26T18:59:37.591Z,68.80
2023-09-26T19:02:09.105Z,69.20
2023-09-26T19:04:38.323Z,69.60
2023-09-26T19:07:06.377Z,70.00
2023-09-26T19:09:36.445Z,70.30
2023-09-26T19:12:05.187Z,70.60
2023-09-26T19:14:32.468Z,70.90
2023-09-26T19:17:00.757Z,71.20
2023-09-26T19:19:28.616Z,71.50
2023-09-26T19:21:55.791Z,71.90
2023-09-26T19:24:22.917Z,72.30
2023-09-26T19:26:49.915Z,72.90
2023-09-26T19:29:17.929Z,73.40
2023-09-26T19:31:45.179Z,73.80
2023-09-26T19:34:12.510Z,74.30
2023-09-26T19:36:39.675Z,74.70
2023-09-26T19:39:07.021Z,75.30
2023-09-26T19:41:35.872Z,76.00
2023-09-26T19:44:03.574Z,76.50
2023-09-26T19:46:30.907Z,77.00
2023-09-26T19:48:59.013Z,77.70
2023-09-26T19:51:26.437Z,78.30
2023-09-26T19:53:53.748Z,79.00
2023-09-26T19:56:25.166Z,79.50
2023-09-26T19:58:52.725Z,80.40
2023-09-26T20:01:25.025Z,80.60
2023-09-26T20:03:54.244Z,81.50
2023-09-26T20:06:22.329Z,81.60
2023-09-26T20:08:49.358Z,82.10
2023-09-26T20:11:18.043Z,82.70
2023-09-26T20:13:45.349Z,83.20
2023-09-26T20:16:12.522Z,83.70
2023-09-26T20:18:40.565Z,84.50
2023-09-26T20:21:08.046Z,85.10
2023-09-26T20:23:35.312Z,85.50
2023-09-26T20:26:03.604Z,86.10
2023-09-26T20:28:30.745Z,86.60
2023-09-26T20:30:58.083Z,87.00
2023-09-26T20:33:25.756Z,87.60
2023-09-26T20:36:00.443Z,88.10
2023-09-26T20:38:28.285Z,89.00
2023-09-26T20:41:06.738Z,89.10
2023-09-26T20:43:34.004Z,90.00
2023-09-26T20:46:01.534Z,89.90
2023-09-26T20:48:29.697Z,90.10
2023-09-26T20:50:58.217Z,90.40
2023-09-26T20:53:25.414Z,90.50
2023-09-26T20:55:52.731Z,90.70
2023-09-26T20:58:20.039Z,90.70
2023-09-26T21:00:47.035Z,90.90
2023-09-26T21:03:16.826Z,91.10
2023-09-26T21:05:44.270Z,91.20
2023-09-26T21:08:11.394Z,91.40
2023-09-26T21:10:38.507Z,91.50
2023-09-26T21:13:05.793Z,91.70
2023-09-26T21:15:33.162Z,91.90
2023-09-26T21:18:00.233Z,92.00
2023-09-26T21:20:27.784Z,92.10
2023-09-26T21:22:55.075Z,92.30
2023-09-26T21:25:22.406Z,92.40
2023-09-26T21:27:50.033Z,92.50
2023-09-26T21:30:17.039Z,92.70
2023-09-26T21:32:44.360Z,92.80
2023-09-26T21:35:11.519Z,92.90
2023-09-26T21:37:38.793Z,93.00
2023-09-26T21:40:07.225Z,93.10
2023-09-26T21:42:34.739Z,93.20
2023-09-26T21:45:01.924Z,93.30
2023-09-26T21:47:29.648Z,93.40
2023-09-26T21:49:57.375Z,93.60
2023-09-26T21:52:24.592Z,93.70
2023-09-26T21:54:53.903Z,93.80
2023-09-26T21:57:21.104Z,94.00
2023-09-26T21:59:48.293Z,94.00
2023-09-26T22:02:16.812Z,94.10
2023-09-26T22:04:45.591Z,94.20
2023-09-26T22:07:15.415Z,94.40
2023-09-26T22:09:43.219Z,94.40
2023-09-26T22:12:10.492Z,94.60
2023-09-26T22:14:38.423Z,94.70
2023-09-26T22:17:06.401Z,94.90
2023-09-26T22:19:33.894Z,94.90
2023-09-26T22:22:00.882Z,95.00
2023-09-26T22:24:28.372Z,95.00
2023-09-26T22:26:56.423Z,95.10
2023-09-26T22:29:23.647Z,95.20
2023-09-26T22:31:51.504Z,95.30
2023-09-26T22:34:18.738Z,95.40
2023-09-26T22:36:45.790Z,95.50
2023-09-26T22:39:12.868Z,95.60
2023-09-26T22:41:40.216Z,95.70
2023-09-26T22:44:07.575Z,95.80
2023-09-26T22:46:34.839Z,95.90
2023-09-26T22:49:02.334Z,96.00
2023-09-26T22:51:29.760Z,96.10
2023-09-26T22:53:57.132Z,96.10
2023-09-26T22:56:24.920Z,96.20
2023-09-26T22:58:52.680Z,96.30
2023-09-26T23:01:20.009Z,96.70
2023-09-26T23:03:48.252Z,96.40
2023-09-26T23:06:15.697Z,96.50
2023-09-26T23:08:43.121Z,96.60
2023-09-26T23:11:10.556Z,96.60
2023-09-26T23:13:40.029Z,96.70
2023-09-26T23:16:08.140Z,96.80
2023-09-26T23:18:40.128Z,96.90
2023-09-26T23:21:07.715Z,96.90
2023-09-26T23:23:34.895Z,97.00
2023-09-26T23:26:02.044Z,97.10
2023-09-26T23:28:29.184Z,97.20
2023-09-26T23:30:57.282Z,97.20
2023-09-26T23:33:24.351Z,97.30
2023-09-26T23:35:52.095Z,97.30
2023-09-26T23:38:19.232Z,97.50
2023-09-26T23:40:46.609Z,97.60
2023-09-26T23:43:13.651Z,97.60
2023-09-26T23:45:41.147Z,97.70
2023-09-26T23:48:08.706Z,97.70
2023-09-26T23:50:36.132Z,97.80
2023-09-26T23:53:04.217Z,97.90
2023-09-26T23:55:31.415Z,98.00
2023-09-26T23:57:58.445Z,98.00
